Time;durP1;ratioP1;P1;durP2;ratioP2;P2;SDS_P1;SDS_P2;PMS_P1;PMS_P2;Temp;Humidity;BMP_temperature;BMP_pressure;BME280_temperature;BME280_humidity;BME280_pressure;Samples;Min_cycle;Max_cycle;Signal;HPM_P1;HPM_P2
2023/06/15 00:02:14;;;;;;;17.27;15.43;;;;;;;19.09;100.00;-18275.03;5074141;28;20551;-58
2023/06/15 00:04:41;;;;;;;18.43;16.10;;;;;;;18.98;100.00;-18272.28;5073780;28;20181;-58
2023/06/15 00:07:08;;;;;;;17.30;15.67;;;;;;;18.95;100.00;-18271.56;5074032;28;20555;-58
2023/06/15 00:09:35;;;;;;;18.67;16.10;;;;;;;18.84;100.00;-18268.94;5073996;28;20208;-59
2023/06/15 00:12:02;;;;;;;17.23;15.67;;;;;;;18.78;100.00;-18267.50;5073685;28;20185;-58
2023/06/15 00:14:30;;;;;;;17.47;15.67;;;;;;;18.87;100.00;-18269.78;5073609;28;20196;-57
2023/06/15 00:16:57;;;;;;;16.33;15.17;;;;;;;18.84;100.00;-18268.94;5073833;28;20184;-57
2023/06/15 00:19:24;;;;;;;18.97;17.13;;;;;;;18.96;100.00;-18271.94;5073804;28;20674;-57
2023/06/15 00:21:53;;;;;;;17.77;16.47;;;;;;;19.05;100.00;-18273.97;5073392;28;20189;-57
2023/06/15 00:24:20;;;;;;;18.57;16.63;;;;;;;19.08;100.00;-18274.66;5072214;28;20228;-57
2023/06/15 00:26:47;;;;;;;19.07;17.33;;;;;;;19.22;100.00;-18278.00;5073675;28;20196;-57
2023/06/15 00:29:14;;;;;;;19.40;17.73;;;;;;;19.14;100.00;-18276.22;5073638;28;20570;-58
2023/06/15 00:31:42;;;;;;;19.37;17.53;;;;;;;19.20;100.00;-18277.53;5073659;28;20214;-56
2023/06/15 00:34:10;;;;;;;19.80;17.93;;;;;;;19.16;100.00;-18276.59;5073515;28;20623;-58
2023/06/15 00:36:37;;;;;;;18.50;16.80;;;;;;;19.08;100.00;-18274.78;5073541;28;20551;-56
2023/06/15 00:39:04;;;;;;;19.37;17.33;;;;;;;19.03;100.00;-18273.47;5073142;28;20223;-58
2023/06/15 00:41:31;;;;;;;18.80;17.03;;;;;;;19.05;100.00;-18273.97;5073447;28;20554;-58
2023/06/15 00:43:58;;;;;;;20.73;18.20;;;;;;;19.13;100.00;-18275.88;5073070;28;20195;-57
2023/06/15 00:46:25;;;;;;;18.97;17.30;;;;;;;19.17;100.00;-18276.81;5073248;28;20551;-57
2023/06/15 00:48:53;;;;;;;19.43;17.63;;;;;;;19.21;100.00;-18277.66;5072953;28;20184;-58
2023/06/15 00:51:20;;;;;;;19.30;17.33;;;;;;;19.27;100.00;-18279.22;5072895;28;20201;-57
2023/06/15 00:53:48;;;;;;;18.90;17.23;;;;;;;19.33;100.00;-18280.53;5072882;28;20188;-58
2023/06/15 00:56:16;;;;;;;19.17;17.33;;;;;;;19.43;100.00;-18282.91;5072835;28;20725;-58
2023/06/15 00:58:44;;;;;;;20.60;18.40;;;;;;;19.47;100.00;-18283.88;5072766;28;20185;-57
2023/06/15 01:01:11;;;;;;;21.10;18.17;;;;;;;19.52;100.00;-18285.06;5072954;28;20593;-57
2023/06/15 01:03:40;;;;;;;20.77;18.93;;;;;;;19.70;100.00;-18289.22;5071642;28;20185;-57
2023/06/15 01:06:13;;;;;;;21.67;19.47;;;;;;;19.76;100.00;-18290.66;5072595;28;20280;-57
2023/06/15 01:08:41;;;;;;;21.63;19.63;;;;;;;19.77;100.00;-18290.91;5072543;28;20224;-58
2023/06/15 01:11:09;;;;;;;21.60;19.53;;;;;;;19.80;100.00;-18291.75;5071251;28;20223;-58
2023/06/15 01:13:38;;;;;;;20.47;18.77;;;;;;;19.83;100.00;-18292.34;5072590;28;20295;-58
2023/06/15 01:16:11;;;;;;;23.07;20.27;;;;;;;19.57;100.00;-18286.38;5072641;28;20568;-59
2023/06/15 01:18:46;;;;;;;23.47;20.77;;;;;;;19.72;100.00;-18289.72;5072687;28;20527;-57
2023/06/15 01:21:15;;;;;;;24.57;21.73;;;;;;;19.66;100.00;-18288.41;5072343;28;20283;-58
2023/06/15 01:23:50;;;;;;;28.80;21.37;;;;;;;19.58;100.00;-18286.63;5072048;28;20239;-58
2023/06/15 01:26:24;;;;;;;23.27;20.87;;;;;;;19.56;100.00;-18286.13;5072447;28;20665;-56
2023/06/15 01:28:52;;;;;;;25.17;20.17;;;;;;;19.48;100.00;-18284.22;5072370;28;20658;-57
2023/06/15 01:31:20;;;;;;;24.93;20.10;;;;;;;19.47;100.00;-18284.00;5072049;28;20258;-58
2023/06/15 01:33:48;;;;;;;22.80;20.20;;;;;;;19.43;100.00;-18283.03;5072036;28;20245;-57
2023/06/15 01:36:15;;;;;;;23.53;21.13;;;;;;;19.37;100.00;-18281.59;5072419;28;20551;-57
2023/06/15 01:38:43;;;;;;;22.37;20.27;;;;;;;19.40;100.00;-18282.19;5072323;28;20250;-57
2023/06/15 01:41:12;;;;;;;28.07;19.20;;;;;;;19.35;100.00;-18281.13;5071931;28;20188;-57
2023/06/15 01:43:41;;;;;;;22.17;19.83;;;;;;;19.29;100.00;-18279.56;5072225;28;20189;-57
2023/06/15 01:46:08;;;;;;;23.10;19.50;;;;;;;19.35;100.00;-18281.00;5071788;28;20185;-57
2023/06/15 01:48:35;;;;;;;24.40;20.20;;;;;;;19.26;100.00;-18278.84;5072080;28;20214;-57
2023/06/15 01:51:03;;;;;;;25.27;20.60;;;;;;;19.22;100.00;-18277.91;5071735;28;20205;-56
2023/06/15 01:53:31;;;;;;;23.07;19.60;;;;;;;19.20;100.00;-18277.53;5070538;28;20275;-57
2023/06/15 01:55:59;;;;;;;25.03;20.60;;;;;;;19.13;100.00;-18275.88;5071715;28;20188;-57
2023/06/15 01:58:26;;;;;;;23.17;20.70;;;;;;;19.09;100.00;-18274.91;5071707;28;20188;-57
2023/06/15 02:00:55;;;;;;;26.23;19.97;;;;;;;19.07;100.00;-18274.56;5071634;28;20187;-57
2023/06/15 02:03:21;;;;;;;21.80;19.53;;;;;;;19.12;100.00;-18275.63;5071666;28;20551;-57
2023/06/15 02:05:48;;;;;;;35.27;22.23;;;;;;;19.01;100.00;-18273.00;5071585;28;20197;-57
2023/06/15 02:08:15;;;;;;;36.40;22.60;;;;;;;19.04;100.00;-18273.72;5071918;28;20326;-57
2023/06/15 02:10:44;;;;;;;28.77;22.17;;;;;;;18.92;100.00;-18270.97;5071409;28;20209;-57
2023/06/15 02:13:12;;;;;;;38.37;23.67;;;;;;;18.93;100.00;-18271.09;5071771;28;20196;-57
2023/06/15 02:15:39;;;;;;;29.20;21.80;;;;;;;18.84;100.00;-18268.94;5071051;28;20195;-56
2023/06/15 02:18:12;;;;;;;25.60;21.30;;;;;;;18.77;100.00;-18267.25;5071769;28;20185;-58
2023/06/15 02:20:40;;;;;;;27.17;22.97;;;;;;;18.69;100.00;-18265.59;5071745;28;20189;-58
2023/06/15 02:23:07;;;;;;;31.73;20.70;;;;;;;18.68;100.00;-18265.34;5071395;28;20294;-58
2023/06/15 02:25:35;;;;;;;26.50;19.97;;;;;;;18.58;100.00;-18262.97;5071686;28;20184;-58
2023/06/15 02:28:02;;;;;;;21.73;19.60;;;;;;;18.65;100.00;-18264.63;5071165;28;20192;-57
2023/06/15 02:30:29;;;;;;;27.63;21.23;;;;;;;18.73;100.00;-18266.44;5071563;28;20662;-57
2023/06/15 02:33:00;;;;;;;33.77;23.90;;;;;;;18.79;100.00;-18267.75;5071640;28;20648;-58
2023/06/15 02:35:28;;;;;;;27.13;20.97;;;;;;;18.81;100.00;-18268.22;5071623;28;20233;-57
2023/06/15 02:37:55;;;;;;;26.77;20.03;;;;;;;18.79;100.00;-18267.75;5071239;28;20246;-56
2023/06/15 02:40:22;;;;;;;24.50;21.83;;;;;;;18.73;100.00;-18266.31;5071171;28;20193;-57
2023/06/15 02:42:49;;;;;;;29.87;23.00;;;;;;;18.70;100.00;-18265.72;5071476;28;20626;-58
2023/06/15 02:45:17;;;;;;;53.77;30.50;;;;;;;18.76;100.00;-18267.03;5071585;28;20530;-57
2023/06/15 02:47:44;;;;;;;50.47;34.67;;;;;;;18.60;100.00;-18263.31;5071346;28;20574;-57
2023/06/15 02:50:11;;;;;;;166.83;38.83;;;;;;;18.84;100.00;-18269.06;5071070;28;20205;-58
2023/06/15 02:52:40;;;;;;;82.73;36.47;;;;;;;18.82;100.00;-18268.56;5071147;28;20189;-56
2023/06/15 02:55:08;;;;;;;73.37;37.53;;;;;;;18.79;100.00;-18267.75;5071082;28;20189;-56
2023/06/15 02:57:36;;;;;;;110.30;39.80;;;;;;;18.87;100.00;-18269.78;5071179;28;20254;-56
2023/06/15 03:00:05;;;;;;;110.17;39.37;;;;;;;18.89;100.00;-18270.13;5071412;28;20181;-56
2023/06/15 03:02:32;;;;;;;99.13;37.23;;;;;;;18.91;100.00;-18270.59;5071446;28;20185;-57
2023/06/15 03:04:59;;;;;;;135.40;36.23;;;;;;;18.88;100.00;-18269.91;5071210;28;20535;-57
2023/06/15 03:07:25;;;;;;;110.27;34.90;;;;;;;18.97;100.00;-18272.03;5071096;28;20204;-58
2023/06/15 03:09:54;;;;;;;70.90;33.63;;;;;;;19.01;100.00;-18273.00;5070816;28;20263;-57
2023/06/15 03:12:21;;;;;;;64.73;33.37;;;;;;;19.01;100.00;-18273.00;5070868;28;20181;-57
2023/06/15 03:14:51;;;;;;;47.67;32.33;;;;;;;19.04;100.00;-18273.72;5071299;28;20207;-57
2023/06/15 03:17:19;;;;;;;45.73;32.73;;;;;;;19.17;100.00;-18276.81;5071213;28;20554;-56
2023/06/15 03:19:47;;;;;;;49.90;33.27;;;;;;;19.32;100.00;-18280.28;5071052;28;20575;-56
2023/06/15 03:22:14;;;;;;;50.87;35.17;;;;;;;19.42;100.00;-18282.78;5070644;28;20185;-57
2023/06/15 03:24:43;;;;;;;39.47;33.77;;;;;;;19.56;100.00;-18286.13;5071088;28;20204;-57
2023/06/15 03:27:13;;;;;;;39.13;32.70;;;;;;;19.74;100.00;-18290.19;5073209;28;20647;-58
2023/06/15 03:29:40;;;;;;;42.23;33.73;;;;;;;19.91;100.00;-18294.25;5074473;28;20192;-58
2023/06/15 03:32:07;;;;;;;37.77;33.70;;;;;;;19.98;100.00;-18295.91;5074385;28;20211;-59
2023/06/15 03:34:35;;;;;;;45.43;34.77;;;;;;;19.94;100.00;-18294.97;5074688;28;20188;-58
2023/06/15 03:37:02;;;;;;;53.13;34.43;;;;;;;20.01;100.00;-18296.63;5074622;28;20558;-57
2023/06/15 03:39:29;;;;;;;48.73;36.03;;;;;;;20.05;100.00;-18297.59;5074543;28;20627;-57
2023/06/15 03:41:56;;;;;;;54.70;36.67;;;;;;;20.09;100.00;-18298.53;5074453;28;20622;-57
2023/06/15 03:44:25;;;;;;;52.30;36.33;;;;;;;20.12;100.00;-18299.25;5074197;28;20195;-57
2023/06/15 03:46:51;;;;;;;73.13;38.63;;;;;;;20.04;100.00;-18297.47;5074638;28;20185;-56
2023/06/15 03:49:18;;;;;;;66.63;39.43;;;;;;;19.87;100.00;-18293.28;5074114;28;20191;-58
2023/06/15 03:51:45;;;;;;;75.10;42.20;;;;;;;19.92;100.00;-18294.59;5074288;28;20231;-58
2023/06/15 03:54:12;;;;;;;82.47;43.58;;;;;;;19.93;100.00;-18294.72;5074349;28;20284;-57
2023/06/15 03:56:39;;;;;;;86.17;44.47;;;;;;;19.91;100.00;-18294.25;5073979;28;20188;-57
2023/06/15 03:59:06;;;;;;;86.50;44.37;;;;;;;19.83;100.00;-18292.34;5073990;28;20203;-58
2023/06/15 04:01:35;;;;;;;102.77;47.90;;;;;;;19.95;100.00;-18295.19;5074229;28;20180;-58
2023/06/15 04:04:02;;;;;;;102.27;47.90;;;;;;;20.00;100.00;-18296.41;5074209;28;20632;-57
2023/06/15 04:06:29;;;;;;;95.50;47.30;;;;;;;19.96;100.00;-18295.44;5074189;28;20211;-58
2023/06/15 04:08:56;;;;;;;97.37;48.37;;;;;;;20.10;100.00;-18298.66;5074152;28;20187;-58
2023/06/15 04:11:23;;;;;;;81.82;50.03;;;;;;;20.25;100.00;-18302.22;5073982;28;20724;-57
2023/06/15 04:13:50;;;;;;;90.95;49.28;;;;;;;20.32;100.00;-18303.91;5073796;28;20211;-57
2023/06/15 04:16:17;;;;;;;84.03;49.50;;;;;;;20.43;100.00;-18306.53;5073659;28;20192;-57
2023/06/15 04:18:48;;;;;;;88.55;50.75;;;;;;;20.50;100.00;-18308.31;5073811;28;20649;-58
2023/06/15 04:21:15;;;;;;;120.83;48.40;;;;;;;20.52;100.00;-18308.78;5073790;28;20635;-58
2023/06/15 04:23:43;;;;;;;81.93;50.13;;;;;;;20.52;100.00;-18308.78;5073302;28;20732;-57
2023/06/15 04:26:10;;;;;;;79.38;46.35;;;;;;;20.30;100.00;-18303.56;5073433;28;20257;-56
2023/06/15 04:28:37;;;;;;;75.77;45.50;;;;;;;20.33;100.00;-18304.25;5073428;28;20193;-57
2023/06/15 04:31:10;;;;;;;78.47;37.93;;;;;;;20.32;100.00;-18304.03;5073616;28;20772;-58
2023/06/15 04:33:37;;;;;;;59.07;38.50;;;;;;;20.36;100.00;-18304.88;5073587;28;20679;-58
2023/06/15 04:36:06;;;;;;;62.07;39.73;;;;;;;20.50;100.00;-18308.19;5073505;28;20621;-57
2023/06/15 04:38:33;;;;;;;65.93;42.78;;;;;;;20.46;100.00;-18307.25;5073360;28;20258;-57
2023/06/15 04:41:00;;;;;;;67.35;43.75;;;;;;;20.51;100.00;-18308.56;5073392;28;20184;-57
2023/06/15 04:43:27;;;;;;;65.60;41.30;;;;;;;20.70;100.00;-18312.84;5073155;28;20193;-57
2023/06/15 04:45:54;;;;;;;61.78;42.33;;;;;;;20.64;100.00;-18311.41;5073060;28;20189;-57
2023/06/15 04:48:21;;;;;;;68.30;42.60;;;;;;;20.79;100.00;-18315.09;5073335;28;20192;-56
2023/06/15 04:50:49;;;;;;;72.87;44.17;;;;;;;20.78;100.00;-18314.75;5073111;28;20346;-58
2023/06/15 04:53:19;;;;;;;69.55;46.20;;;;;;;20.85;100.00;-18316.41;5072924;28;20234;-58
2023/06/15 04:55:48;;;;;;;92.30;46.67;;;;;;;21.02;100.00;-18320.34;5072840;28;20189;-57
2023/06/15 04:58:15;;;;;;;71.45;44.42;;;;;;;21.06;100.00;-18321.31;5072834;28;20220;-58
2023/06/15 05:00:42;;;;;;;77.70;44.63;;;;;;;21.16;100.00;-18323.81;5071725;28;20181;-58
2023/06/15 05:03:10;;;;;;;77.70;48.65;;;;;;;21.40;100.00;-18329.53;5072677;28;20192;-57
2023/06/15 05:05:36;;;;;;;84.28;49.83;;;;;;;21.47;100.00;-18331.06;5072996;28;20675;-57
2023/06/15 05:08:04;;;;;;;80.40;49.30;;;;;;;21.70;100.00;-18334.53;5072670;28;20184;-59
2023/06/15 05:10:32;;;;;;;88.72;48.42;;;;;;;21.89;100.00;-15425.91;5072498;28;20188;-59
2023/06/15 05:12:59;;;;;;;72.60;45.42;;;;;;;22.06;100.00;-11215.50;5072802;28;20192;-59
2023/06/15 05:15:26;;;;;;;69.25;44.17;;;;;;;22.18;100.00;-6672.22;5072517;28;20185;-58
2023/06/15 05:17:53;;;;;;;69.10;44.30;;;;;;;22.32;100.00;-6023.03;5072385;28;20219;-58
2023/06/15 05:20:20;;;;;;;61.70;43.17;;;;;;;22.54;100.00;-1469.31;5072542;28;20286;-58
2023/06/15 05:22:47;;;;;;;64.82;41.92;;;;;;;22.78;100.00;3420.28;5072026;28;20254;-57
2023/06/15 05:25:14;;;;;;;70.60;42.15;;;;;;;23.00;100.00;13225.69;5072277;28;20263;-59
2023/06/15 05:27:45;;;;;;;63.40;38.97;;;;;;;22.95;100.00;14206.16;5072123;28;20185;-59
2023/06/15 05:30:12;;;;;;;57.95;37.88;;;;;;;23.17;100.00;18799.56;5072012;28;20646;-60
2023/06/15 05:32:39;;;;;;;56.58;35.42;;;;;;;23.45;100.00;29652.28;5071907;28;20209;-58
2023/06/15 05:35:07;;;;;;;50.92;33.17;;;;;;;23.74;100.00;46832.84;5072213;28;20661;-58
2023/06/15 05:37:37;;;;;;;35.15;28.30;;;;;;;23.83;100.00;63098.44;5072162;28;20188;-59
2023/06/15 05:40:05;;;;;;;69.07;35.40;;;;;;;24.13;100.00;73127.41;5072090;28;20716;-58
2023/06/15 05:42:32;;;;;;;68.78;38.42;;;;;;;24.29;100.00;83175.66;5071795;28;20181;-57
2023/06/15 05:45:00;;;;;;;77.18;39.05;;;;;;;24.40;100.00;86876.44;5072015;28;20655;-57
2023/06/15 05:47:27;;;;;;;54.33;34.45;;;;;;;24.72;100.00;108117.13;5071932;28;20187;-57
2023/06/15 05:49:54;;;;;;;42.83;26.77;;;;;;;24.84;100.00;138645.97;5071050;28;20181;-57
2023/06/15 05:52:21;;;;;;;49.75;31.38;;;;;;;24.98;100.00;134933.78;5071798;28;20544;-57
2023/06/15 05:54:48;;;;;;;49.85;32.22;;;;;;;25.26;100.00;144964.00;5071584;28;20189;-58
2023/06/15 05:57:15;;;;;;;36.03;27.15;;;;;;;25.41;100.00;152429.84;5072259;28;20181;-57
2023/06/15 05:59:42;;;;;;;52.65;29.17;;;;;;;25.71;100.00;152506.56;5071408;28;20215;-57
2023/06/15 06:02:11;;;;;;;38.20;29.98;;;;;;;25.72;100.00;152507.81;5070823;28;20283;-57
2023/06/15 06:04:38;;;;;;;45.58;30.45;;;;;;;25.76;100.00;152519.31;5071662;28;20258;-58
2023/06/15 06:07:06;;;;;;;37.55;27.77;;;;;;;25.94;100.00;152564.03;5071676;28;20547;-58
2023/06/15 06:09:33;;;;;;;31.42;26.00;;;;;;;26.42;100.00;152684.28;5071294;28;20683;-58
2023/06/15 06:12:01;;;;;;;31.95;27.70;;;;;;;26.04;100.00;152588.34;5071496;28;20213;-56
2023/06/15 06:14:28;;;;;;;37.38;27.67;;;;;;;26.26;100.00;152645.94;5071997;28;20200;-58
2023/06/15 06:16:56;;;;;;;34.25;25.58;;;;;;;26.24;100.00;152640.81;5071483;28;20227;-59
2023/06/15 06:19:25;;;;;;;26.70;21.30;;;;;;;26.20;100.00;152629.28;5071295;28;20196;-57
2023/06/15 06:21:52;;;;;;;24.50;22.08;;;;;;;26.70;100.00;152757.16;5071112;28;20186;-57
2023/06/15 06:24:19;;;;;;;22.67;20.50;;;;;;;26.87;100.00;152799.41;5071151;28;20232;-57
2023/06/15 06:26:46;;;;;;;24.42;21.88;;;;;;;27.39;100.00;152931.16;5053541;28;20658;-57
2023/06/15 06:29:13;;;;;;;19.60;17.42;;;;;;;26.95;100.00;152818.56;5071105;28;20203;-58
2023/06/15 06:31:40;;;;;;;14.55;13.10;;;;;;;27.01;100.00;152833.94;5071057;28;20606;-58
2023/06/15 06:34:07;;;;;;;12.00;10.98;;;;;;;27.56;100.00;152974.72;5071363;28;20639;-58
2023/06/15 06:36:35;;;;;;;10.48;9.70;;;;;;;27.73;100.00;153015.66;5071164;28;20190;-57
2023/06/15 06:39:03;;;;;;;11.25;10.63;;;;;;;27.68;100.00;153004.13;5071006;28;20185;-58
2023/06/15 06:41:30;;;;;;;9.98;9.30;;;;;;;27.11;100.00;152859.53;5071099;28;20188;-58
2023/06/15 06:43:57;;;;;;;9.90;9.48;;;;;;;26.71;100.00;152758.44;5071315;28;20189;-58
2023/06/15 06:46:24;;;;;;;10.73;10.15;;;;;;;26.86;100.00;152795.59;5070947;28;20177;-57
2023/06/15 06:48:51;;;;;;;10.75;10.05;;;;;;;26.75;100.00;152769.94;5070960;28;20283;-58
2023/06/15 06:51:18;;;;;;;10.38;9.75;;;;;;;26.55;100.00;152718.81;5069845;28;20701;-58
2023/06/15 06:53:47;;;;;;;9.27;8.63;;;;;;;26.96;100.00;152821.16;5071241;28;20271;-58
2023/06/15 06:56:14;;;;;;;10.13;8.95;;;;;;;27.37;100.00;152924.78;5070881;28;20272;-58
2023/06/15 06:58:42;;;;;;;9.35;8.95;;;;;;;27.73;100.00;153015.66;5070549;28;20199;-58
2023/06/15 07:01:09;;;;;;;9.18;8.63;;;;;;;27.10;100.00;152856.97;5073356;28;20184;-57
2023/06/15 07:03:38;;;;;;;8.75;8.13;;;;;;;26.53;100.00;152713.66;5075753;28;20224;-58
2023/06/15 07:06:05;;;;;;;9.30;8.60;;;;;;;26.29;100.00;152653.59;5074601;28;20189;-58
2023/06/15 07:08:31;;;;;;;8.88;7.97;;;;;;;26.02;100.00;152583.22;5074971;28;20500;-58
2023/06/15 07:11:00;;;;;;;9.13;8.52;;;;;;;25.74;100.00;152512.94;5074891;28;20191;-58
2023/06/15 07:13:27;;;;;;;9.80;8.98;;;;;;;25.50;100.00;152452.84;5074689;28;20197;-56
2023/06/15 07:15:56;;;;;;;9.18;8.52;;;;;;;25.50;100.00;152451.56;5075174;28;20620;-58
2023/06/15 07:18:23;;;;;;;8.57;7.72;;;;;;;25.59;100.00;152475.84;5075046;28;20634;-58
2023/06/15 07:20:53;;;;;;;9.10;8.40;;;;;;;25.83;100.00;152535.94;5074758;28;20189;-58
2023/06/15 07:23:21;;;;;;;8.75;8.18;;;;;;;25.79;100.00;152527.00;5074713;28;20564;-58
2023/06/15 07:25:48;;;;;;;8.90;8.30;;;;;;;25.78;100.00;152524.44;5074390;28;20185;-58
2023/06/15 07:28:17;;;;;;;8.80;7.97;;;;;;;25.58;100.00;152472.03;5074724;28;20191;-56
2023/06/15 07:30:49;;;;;;;8.73;8.18;;;;;;;25.46;100.00;152442.63;5075435;28;20288;-58
2023/06/15 07:33:18;;;;;;;8.07;7.47;;;;;;;25.47;100.00;152446.41;5074196;28;20204;-57
2023/06/15 07:35:45;;;;;;;7.38;6.75;;;;;;;25.30;100.00;152402.97;5074469;28;20562;-58
2023/06/15 07:38:14;;;;;;;8.43;6.82;;;;;;;25.63;100.00;152486.06;5074439;28;20283;-58
2023/06/15 07:40:41;;;;;;;7.63;7.20;;;;;;;25.53;100.00;152460.53;5074043;28;20286;-58
2023/06/15 07:43:08;;;;;;;7.50;6.88;;;;;;;25.48;100.00;152447.72;5074530;28;20185;-58
2023/06/15 07:45:36;;;;;;;8.85;8.25;;;;;;;25.73;100.00;152510.38;5073924;28;20272;-57
2023/06/15 07:48:03;;;;;;;8.10;7.60;;;;;;;25.65;100.00;152491.22;5074196;28;20196;-58
2023/06/15 07:50:30;;;;;;;7.97;7.57;;;;;;;25.58;100.00;152473.34;5074169;28;20188;-58
2023/06/15 07:52:57;;;;;;;8.43;7.82;;;;;;;25.54;100.00;152463.09;5074125;28;20574;-57
2023/06/15 07:55:24;;;;;;;8.82;8.00;;;;;;;25.67;100.00;152495.06;5073857;28;20580;-58
2023/06/15 07:57:51;;;;;;;8.32;7.72;;;;;;;25.82;100.00;152533.38;5073711;28;20195;-59
2023/06/15 08:00:20;;;;;;;8.07;7.20;;;;;;;25.84;100.00;152538.50;5073727;28;20189;-58
2023/06/15 08:02:48;;;;;;;7.28;6.88;;;;;;;25.87;100.00;152546.16;5073928;28;20192;-58
2023/06/15 08:05:16;;;;;;;7.93;7.30;;;;;;;25.74;100.00;152514.22;5073562;28;20186;-59
2023/06/15 08:07:45;;;;;;;8.70;8.10;;;;;;;25.97;100.00;152571.69;5074474;28;20626;-58
2023/06/15 08:10:15;;;;;;;7.88;7.28;;;;;;;25.86;100.00;152543.59;5073927;28;20621;-59
2023/06/15 08:12:42;;;;;;;7.30;6.75;;;;;;;25.98;100.00;152574.28;5069888;28;20212;-59
2023/06/15 08:15:09;;;;;;;7.97;7.45;;;;;;;25.68;100.00;152498.84;5058381;28;20228;-58
2023/06/15 08:17:36;;;;;;;8.07;7.57;;;;;;;25.59;100.00;152474.63;5053749;28;20575;-58
2023/06/15 08:20:07;;;;;;;8.77;8.00;;;;;;;25.48;100.00;152447.72;5053671;28;20567;-59
2023/06/15 08:22:34;;;;;;;7.95;7.43;;;;;;;25.26;100.00;152391.47;5053496;28;20232;-58
2023/06/15 08:25:01;;;;;;;8.38;7.78;;;;;;;25.47;100.00;152445.13;5053280;28;20223;-58
2023/06/15 08:27:28;;;;;;;7.85;7.45;;;;;;;25.33;100.00;152409.41;5053457;28;20181;-58
2023/06/15 08:29:57;;;;;;;7.43;6.88;;;;;;;25.23;100.00;152385.09;5053121;28;20197;-57
2023/06/15 08:32:24;;;;;;;8.43;7.80;;;;;;;25.09;100.00;152348.03;5053562;28;20205;-58
2023/06/15 08:34:51;;;;;;;7.53;7.22;;;;;;;25.24;100.00;152387.69;5053061;28;20197;-58
2023/06/15 08:37:19;;;;;;;7.55;7.15;;;;;;;25.33;100.00;152410.63;5053387;28;20193;-58
2023/06/15 08:39:46;;;;;;;8.25;7.43;;;;;;;25.58;100.00;152473.34;5053276;28;20189;-58
2023/06/15 08:42:14;;;;;;;7.32;6.95;;;;;;;25.68;100.00;152498.84;5052961;28;20191;-58
2023/06/15 08:44:42;;;;;;;8.68;7.60;;;;;;;25.52;100.00;152457.94;5053303;28;20186;-57
2023/06/15 08:47:09;;;;;;;9.73;6.57;;;;;;;25.75;100.00;152515.50;5053056;28;20189;-58
2023/06/15 08:49:37;;;;;;;7.85;7.35;;;;;;;25.82;100.00;152533.38;5053189;28;20190;-58
2023/06/15 08:52:05;;;;;;;7.10;6.80;;;;;;;26.13;100.00;152611.38;5052558;28;20262;-58
2023/06/15 08:54:35;;;;;;;5.97;5.78;;;;;;;25.85;100.00;152542.31;5052983;28;20632;-57
2023/06/15 08:57:02;;;;;;;5.80;5.50;;;;;;;25.99;100.00;152575.56;5052584;28;20191;-57
2023/06/15 08:59:30;;;;;;;6.05;5.85;;;;;;;25.59;100.00;152475.84;5052778;28;20292;-57
2023/06/15 09:02:03;;;;;;;7.47;7.07;;;;;;;25.77;100.00;152521.88;5052570;28;20188;-58
2023/06/15 09:04:31;;;;;;;7.60;7.05;;;;;;;25.96;100.00;152567.91;5052719;28;20177;-59
2023/06/15 09:07:02;;;;;;;8.50;7.97;;;;;;;25.79;100.00;152527.00;5052535;28;20186;-59
2023/06/15 09:09:29;;;;;;;7.07;6.78;;;;;;;25.30;100.00;152402.97;5052779;28;20592;-59
2023/06/15 09:11:57;;;;;;;7.25;6.47;;;;;;;25.36;100.00;152417.03;5052905;28;20660;-59
2023/06/15 09:14:27;;;;;;;7.30;6.63;;;;;;;25.18;100.00;152372.31;5052952;28;20194;-58
2023/06/15 09:16:55;;;;;;;10.35;6.15;;;;;;;25.59;100.00;152474.63;5052727;28;20189;-58
2023/06/15 09:19:23;;;;;;;7.28;6.97;;;;;;;25.10;100.00;152350.59;5052544;28;20587;-57
2023/06/15 09:21:51;;;;;;;6.93;6.40;;;;;;;25.00;100.00;152327.59;5052001;28;20189;-58
2023/06/15 09:24:19;;;;;;;6.95;5.95;;;;;;;24.76;100.00;152264.97;5051119;28;20601;-57
2023/06/15 09:26:46;;;;;;;6.22;5.80;;;;;;;24.87;100.00;152294.38;5052035;28;20189;-58
2023/06/15 09:29:14;;;;;;;8.65;8.00;;;;;;;24.54;100.00;152210.03;5052399;28;20292;-58
2023/06/15 09:31:41;;;;;;;7.15;6.75;;;;;;;24.75;100.00;152262.41;5052031;28;20197;-58
2023/06/15 09:34:10;;;;;;;7.07;6.45;;;;;;;24.68;100.00;152244.53;5051937;28;20605;-58
2023/06/15 09:36:41;;;;;;;7.13;6.78;;;;;;;24.47;100.00;152192.19;5051783;28;20200;-59
2023/06/15 09:39:10;;;;;;;7.30;7.00;;;;;;;24.37;100.00;124617.13;5051641;28;20193;-59
2023/06/15 09:41:50;;;;;;;7.75;7.05;;;;;;;24.37;100.00;152166.63;5052029;28;20646;-58
2023/06/15 09:44:19;;;;;;;7.00;6.40;;;;;;;24.66;100.00;152240.69;5052846;28;20188;-60
2023/06/15 09:46:49;;;;;;;7.35;6.97;;;;;;;24.71;100.00;152253.47;5052426;28;20639;-59
2023/06/15 09:49:21;;;;;;;6.65;6.18;;;;;;;25.14;100.00;152362.09;5052082;28;20618;-58
2023/06/15 09:51:50;;;;;;;6.93;6.53;;;;;;;25.46;100.00;152442.63;5051513;28;20217;-59
2023/06/15 09:54:20;;;;;;;7.55;6.82;;;;;;;25.64;100.00;152488.63;5051973;28;20696;-60
2023/06/15 09:56:49;;;;;;;7.50;7.20;;;;;;;25.95;100.00;152565.31;5052050;28;20623;-59
2023/06/15 09:59:18;;;;;;;7.00;6.70;;;;;;;26.20;100.00;152629.28;5051737;28;20186;-58
2023/06/15 10:01:48;;;;;;;7.68;7.03;;;;;;;26.11;100.00;152606.22;5051925;28;20185;-58
2023/06/15 10:04:17;;;;;;;7.80;7.30;;;;;;;26.18;100.00;152624.16;5051520;28;20188;-58
2023/06/15 10:06:48;;;;;;;6.90;6.60;;;;;;;26.04;100.00;152588.34;5051841;28;20707;-58
2023/06/15 10:09:22;;;;;;;7.88;7.35;;;;;;;25.72;100.00;152507.81;5051419;28;20276;-57
2023/06/15 10:11:53;;;;;;;8.48;7.65;;;;;;;25.85;100.00;152542.31;5051077;28;20227;-59
2023/06/15 10:14:29;;;;;;;8.23;7.75;;;;;;;25.98;100.00;152572.97;5051493;28;20193;-59
2023/06/15 10:17:02;;;;;;;7.43;6.93;;;;;;;25.63;100.00;152484.84;5051240;28;20279;-58
2023/06/15 10:19:32;;;;;;;7.43;7.03;;;;;;;25.11;100.00;152353.16;5051318;28;20239;-59
2023/06/15 10:22:00;;;;;;;7.75;7.40;;;;;;;24.90;100.00;152302.09;5051596;28;20583;-58
2023/06/15 10:24:27;;;;;;;8.65;8.25;;;;;;;24.49;100.00;152197.25;5051574;28;20233;-58
2023/06/15 10:26:55;;;;;;;7.43;7.13;;;;;;;24.34;100.00;149846.94;5051249;28;20181;-57
2023/06/15 10:29:31;;;;;;;8.13;7.47;;;;;;;24.60;100.00;152224.09;5051685;28;20246;-58
2023/06/15 10:32:08;;;;;;;8.63;7.57;;;;;;;24.18;100.00;125932.53;5051274;28;20181;-58
2023/06/15 10:34:41;;;;;;;10.20;7.78;;;;;;;24.19;100.00;120178.72;5049734;28;20185;-57
2023/06/15 10:37:14;;;;;;;7.78;7.28;;;;;;;24.16;100.00;134749.22;5051002;28;20185;-58
2023/06/15 10:39:44;;;;;;;7.15;6.68;;;;;;;24.16;100.00;137807.75;5051108;28;20216;-59
2023/06/15 10:42:14;;;;;;;8.02;6.70;;;;;;;24.28;100.00;152143.63;5051278;28;20632;-58
2023/06/15 10:44:42;;;;;;;6.80;6.40;;;;;;;24.36;100.00;152165.34;5051309;28;20181;-57
2023/06/15 10:47:10;;;;;;;9.40;7.20;;;;;;;24.38;100.00;152169.19;5051050;28;20211;-57
2023/06/15 10:49:48;;;;;;;7.53;6.95;;;;;;;24.04;100.00;152084.88;5050756;28;20280;-58
2023/06/15 10:52:15;;;;;;;7.85;7.25;;;;;;;24.21;100.00;152125.78;5050881;28;20192;-57
2023/06/15 10:54:41;;;;;;;7.05;6.60;;;;;;;24.33;100.00;152157.69;5050833;28;20186;-57
2023/06/15 10:57:09;;;;;;;7.25;6.82;;;;;;;24.27;100.00;152141.13;5050775;28;20189;-57
2023/06/15 10:59:47;;;;;;;9.32;6.28;;;;;;;24.20;100.00;152124.50;5049587;28;20281;-59
2023/06/15 11:02:48;;;;;;;7.47;6.90;;;;;;;23.92;100.00;152054.25;5050947;28;20189;-58
2023/06/15 11:05:19;;;;;;;7.47;6.85;;;;;;;24.08;100.00;152093.81;5049616;28;20196;-59
2023/06/15 11:07:52;;;;;;;8.55;7.80;;;;;;;24.08;100.00;152093.81;5050983;28;20181;-58
2023/06/15 11:10:22;;;;;;;7.53;6.90;;;;;;;23.81;100.00;152026.13;5050805;28;20241;-58
2023/06/15 11:13:00;;;;;;;7.18;6.72;;;;;;;23.51;100.00;145873.00;5050754;28;20209;-58